createdAt,value
2023-03-10T00:00:12.749Z,90.40
2023-03-10T00:05:15.171Z,90.70
2023-03-10T00:10:18.496Z,90.50
2023-03-10T00:15:22.115Z,90.40
2023-03-10T00:20:24.247Z,90.20
2023-03-10T00:25:26.411Z,90.10
2023-03-10T00:30:31.918Z,90.10
2023-03-10T00:35:35.208Z,90.40
2023-03-10T00:40:37.299Z,90.50
2023-03-10T00:45:40.809Z,90.50
2023-03-10T00:50:42.961Z,90.50
2023-03-10T00:55:56.755Z,90.20
2023-03-10T01:01:01.103Z,90.70
2023-03-10T01:06:03.370Z,91.10
2023-03-10T01:11:05.985Z,91.10
2023-03-10T01:16:09.844Z,90.60
2023-03-10T01:21:20.560Z,90.50
2023-03-10T01:26:23.167Z,91.10
2023-03-10T01:31:26.794Z,91.00
2023-03-10T01:36:29.204Z,91.00
2023-03-10T01:41:31.351Z,91.30
2023-03-10T01:46:45.077Z,91.00
2023-03-10T01:51:51.616Z,91.20
2023-03-10T01:56:56.243Z,90.70
2023-03-10T02:02:01.877Z,90.50
2023-03-10T02:07:06.188Z,90.60
2023-03-10T02:12:10.095Z,90.40
2023-03-10T02:17:16.520Z,90.50
2023-03-10T02:22:18.771Z,90.20
2023-03-10T02:27:24.318Z,90.10
2023-03-10T02:32:27.780Z,90.00
2023-03-10T02:37:32.356Z,90.00
2023-03-10T02:42:36.708Z,89.70
2023-03-10T02:47:38.876Z,89.80
2023-03-10T02:52:47.036Z,90.10
2023-03-10T02:57:50.519Z,90.00
2023-03-10T03:02:52.662Z,89.70
2023-03-10T03:07:54.727Z,89.80
2023-03-10T03:12:58.260Z,89.90
2023-03-10T03:18:01.499Z,89.70
2023-03-10T03:23:04.670Z,89.50
2023-03-10T03:28:10.320Z,89.40
2023-03-10T03:33:12.441Z,89.30
2023-03-10T03:38:14.557Z,89.30
2023-03-10T03:43:18.043Z,89.40
2023-03-10T03:48:22.327Z,89.50
2023-03-10T03:53:24.901Z,89.20
2023-03-10T03:58:28.359Z,89.10
2023-03-10T04:03:30.605Z,89.30
2023-03-10T04:08:32.797Z,89.00
2023-03-10T04:13:36.369Z,88.90
2023-03-10T04:18:38.475Z,89.00
2023-03-10T04:23:40.633Z,89.00
2023-03-10T04:28:44.171Z,89.00
2023-03-10T04:33:46.977Z,88.70
2023-03-10T04:38:49.185Z,88.70
2023-03-10T04:43:52.806Z,88.70
2023-03-10T04:48:54.878Z,89.00
2023-03-10T04:53:57.317Z,88.80
2023-03-10T04:59:00.866Z,88.90
2023-03-10T05:04:05.327Z,88.80
2023-03-10T05:14:36.324Z,88.60
2023-03-10T05:19:39.114Z,88.80
2023-03-10T05:24:41.236Z,88.60
2023-03-10T05:29:44.800Z,88.60
2023-03-10T05:34:46.925Z,88.70
2023-03-10T05:39:49.013Z,88.70
2023-03-10T05:44:52.660Z,88.40
2023-03-10T05:49:54.872Z,88.40
2023-03-10T05:54:56.954Z,88.40
2023-03-10T06:00:01.751Z,88.30
2023-03-10T06:05:04.032Z,88.50
2023-03-10T06:10:08.115Z,88.50
2023-03-10T06:15:12.413Z,88.10
2023-03-10T06:20:15.543Z,88.20
2023-03-10T06:25:18.170Z,88.00
2023-03-10T06:30:22.620Z,88.00
2023-03-10T06:35:25.729Z,87.90
2023-03-10T06:40:28.208Z,87.80
2023-03-10T06:45:32.176Z,87.80
2023-03-10T06:50:34.760Z,87.70
2023-03-10T06:55:37.999Z,87.60
2023-03-10T07:00:42.163Z,87.50
2023-03-10T07:05:44.603Z,87.40
2023-03-10T07:10:47.018Z,87.40
2023-03-10T07:15:51.040Z,87.30
2023-03-10T07:20:53.801Z,87.40
2023-03-10T07:25:57.849Z,87.40
2023-03-10T07:31:05.502Z,87.40
2023-03-10T07:36:10.321Z,87.40
2023-03-10T07:41:15.910Z,87.50
2023-03-10T07:46:19.804Z,87.60
2023-03-10T07:51:22.331Z,87.70
2023-03-10T07:56:24.826Z,87.70
2023-03-10T08:01:28.950Z,87.70
2023-03-10T08:06:31.475Z,87.80
2023-03-10T08:11:33.898Z,87.70
2023-03-10T08:16:38.363Z,88.00
2023-03-10T08:21:41.141Z,88.00
2023-03-10T08:26:43.839Z,88.00
2023-03-10T08:31:47.794Z,88.10
2023-03-10T08:36:50.308Z,88.10
2023-03-10T08:41:52.707Z,88.30
2023-03-10T08:46:56.758Z,88.50
2023-03-10T08:51:59.491Z,88.50
2023-03-10T08:57:02.196Z,88.70
2023-03-10T09:02:06.595Z,88.50
2023-03-10T09:07:09.730Z,88.60
2023-03-10T09:12:12.900Z,88.50
2023-03-10T09:17:16.785Z,88.40
2023-03-10T09:22:19.419Z,88.30
2023-03-10T09:27:21.792Z,88.20
2023-03-10T09:32:26.021Z,88.30
2023-03-10T09:37:28.693Z,88.60
2023-03-10T09:42:38.714Z,88.40
2023-03-10T09:47:53.965Z,88.70
2023-03-10T09:53:03.046Z,88.60
2023-03-10T09:58:05.870Z,88.60
2023-03-10T10:03:18.555Z,88.40
2023-03-10T10:08:25.247Z,88.50
2023-03-10T10:13:30.115Z,89.00
2023-03-10T10:18:40.099Z,87.90
2023-03-10T10:23:46.612Z,88.00
2023-03-10T10:28:53.971Z,87.60
2023-03-10T10:34:00.569Z,87.80
2023-03-10T10:39:05.378Z,87.90
2023-03-10T10:44:13.505Z,87.90
2023-03-10T10:49:24.501Z,88.50
2023-03-10T10:54:29.577Z,88.30
2023-03-10T10:59:33.521Z,88.20
2023-03-10T11:04:44.579Z,88.40
2023-03-10T11:09:47.644Z,88.40
2023-03-10T11:15:14.923Z,88.00
2023-03-10T11:20:28.872Z,88.00
2023-03-10T11:25:38.659Z,87.80
2023-03-10T11:30:49.235Z,88.00
2023-03-10T11:35:58.633Z,88.10
2023-03-10T11:41:13.754Z,87.90
2023-03-10T11:46:23.464Z,87.90
2023-03-10T11:51:34.759Z,88.00
2023-03-10T11:56:39.404Z,87.80
2023-03-10T12:01:47.506Z,87.20
2023-03-10T12:06:59.506Z,87.20
2023-03-10T12:12:04.867Z,87.50
2023-03-10T12:17:11.618Z,87.50
2023-03-10T12:22:34.214Z,87.50
2023-03-10T12:28:10.330Z,87.40
2023-03-10T12:33:41.264Z,87.20
2023-03-10T12:38:50.308Z,87.10
2023-03-10T12:43:58.511Z,87.00
2023-03-10T12:49:14.385Z,87.00
2023-03-10T12:54:52.980Z,87.10
2023-03-10T13:00:03.093Z,87.40
2023-03-10T13:05:16.676Z,87.00
2023-03-10T13:10:23.635Z,87.00
2023-03-10T13:15:30.025Z,87.10
2023-03-10T13:20:37.456Z,87.10
2023-03-10T13:25:52.012Z,87.30
2023-03-10T13:31:09.331Z,87.40
2023-03-10T13:36:29.674Z,87.30
2023-03-10T13:41:33.874Z,88.10
2023-03-10T13:46:36.359Z,87.10
2023-03-10T13:51:38.853Z,86.90
2023-03-10T13:56:44.366Z,86.80
2023-03-10T14:01:49.079Z,86.70
2023-03-10T14:07:09.893Z,86.80
2023-03-10T14:12:14.628Z,86.90
2023-03-10T14:17:31.244Z,86.70
2023-03-10T14:22:36.417Z,86.70
2023-03-10T14:27:43.328Z,86.50
2023-03-10T14:32:45.970Z,86.40
2023-03-10T14:37:48.555Z,86.30
2023-03-10T14:42:54.223Z,86.30
2023-03-10T14:47:58.544Z,86.50
2023-03-10T14:53:01.313Z,86.40
2023-03-10T14:58:06.228Z,86.40
2023-03-10T15:03:11.691Z,86.60
2023-03-10T15:08:14.379Z,86.70
2023-03-10T15:13:21.587Z,86.60
2023-03-10T15:18:25.715Z,86.80
2023-03-10T15:23:30.466Z,86.90
2023-03-10T15:28:36.250Z,86.90
2023-03-10T15:33:41.832Z,86.80
2023-03-10T15:38:47.159Z,86.80
2023-03-10T15:43:59.415Z,86.70
2023-03-10T15:49:05.487Z,86.90
2023-03-10T15:54:12.108Z,86.80
2023-03-10T15:59:47.885Z,86.90
2023-03-10T16:10:22.240Z,86.90
2023-03-10T16:15:29.418Z,87.00
2023-03-10T16:26:18.506Z,87.00
2023-03-10T16:31:24.641Z,87.10
2023-03-10T16:36:28.744Z,86.90
2023-03-10T16:41:31.730Z,86.80
2023-03-10T16:46:39.797Z,86.70
2023-03-10T16:51:44.392Z,86.80
2023-03-10T16:56:49.250Z,86.80
2023-03-10T17:01:58.404Z,86.90
2023-03-10T17:07:12.346Z,86.80
2023-03-10T17:12:29.668Z,86.80
2023-03-10T17:17:43.583Z,86.90
2023-03-10T17:22:46.252Z,87.00
2023-03-10T17:27:50.994Z,87.00
2023-03-10T17:32:55.382Z,87.10
2023-03-10T17:37:57.893Z,87.20
2023-03-10T17:43:13.191Z,87.30
2023-03-10T17:48:29.341Z,87.30
2023-03-10T17:53:32.672Z,87.30
2023-03-10T17:58:40.583Z,87.30
2023-03-10T18:03:48.059Z,87.20
2023-03-10T18:08:54.232Z,87.10
2023-03-10T18:13:58.623Z,87.10
2023-03-10T18:19:03.262Z,87.00
2023-03-10T18:24:06.236Z,87.00
2023-03-10T18:29:12.340Z,86.90
2023-03-10T18:34:19.400Z,86.90
2023-03-10T18:39:21.413Z,86.70
2023-03-10T18:44:23.863Z,87.10
2023-03-10T18:49:27.813Z,86.60
2023-03-10T18:54:30.395Z,86.90
2023-03-10T18:59:34.580Z,87.00
2023-03-10T19:04:38.897Z,87.20
2023-03-10T19:09:41.494Z,87.20
2023-03-10T19:14:43.935Z,87.20
2023-03-10T19:19:47.954Z,87.20
2023-03-10T19:24:52.670Z,87.10
2023-03-10T19:30:01.007Z,87.10
2023-03-10T19:35:06.965Z,87.10
2023-03-10T19:40:13.225Z,86.90
2023-03-10T19:45:18.058Z,87.00
2023-03-10T19:50:26.152Z,87.00
2023-03-10T19:55:29.481Z,87.10
2023-03-10T20:00:42.378Z,87.20
2023-03-10T20:05:47.098Z,87.40
2023-03-10T20:10:49.823Z,87.30
2023-03-10T20:15:52.148Z,87.30
2023-03-10T20:21:05.930Z,87.20
2023-03-10T20:26:10.590Z,87.30
2023-03-10T20:31:31.169Z,87.10
2023-03-10T20:36:38.658Z,87.00
2023-03-10T20:41:48.665Z,87.00
2023-03-10T20:46:53.923Z,87.00
2023-03-10T20:51:57.809Z,86.90
2023-03-10T20:57:00.198Z,87.00
2023-03-10T21:02:03.111Z,86.90
2023-03-10T21:07:25.930Z,87.90
2023-03-10T21:18:10.620Z,87.20
2023-03-10T21:23:17.315Z,87.10
2023-03-10T21:28:24.440Z,87.10
2023-03-10T21:33:28.864Z,87.00
2023-03-10T21:38:37.452Z,86.90
2023-03-10T21:43:39.919Z,87.00
2023-03-10T21:48:45.789Z,87.00
2023-03-10T21:53:54.889Z,87.10
2023-03-10T21:59:01.619Z,87.00
2023-03-10T22:09:23.359Z,87.10
2023-03-10T22:14:25.678Z,87.00
2023-03-10T22:19:27.954Z,87.10
2023-03-10T22:24:31.962Z,87.20
2023-03-10T22:29:34.217Z,87.10
2023-03-10T22:34:36.529Z,87.10
2023-03-10T22:39:40.825Z,86.90
2023-03-10T22:44:43.051Z,86.90
2023-03-10T22:49:45.453Z,86.80
2023-03-10T22:54:49.301Z,87.00
2023-03-10T23:00:10.827Z,87.20
2023-03-10T23:05:13.817Z,87.20
2023-03-10T23:10:22.411Z,87.30
2023-03-10T23:15:27.640Z,87.40
2023-03-10T23:20:33.409Z,87.30
2023-03-10T23:25:43.549Z,87.10
2023-03-10T23:30:49.910Z,87.10
2023-03-10T23:35:55.559Z,87.10
2023-03-10T23:40:59.775Z,87.20
2023-03-10T23:46:04.275Z,87.30
2023-03-10T23:51:13.528Z,87.60
2023-03-10T23:56:18.165Z,87.90
